Time;durP1;ratioP1;P1;durP2;ratioP2;P2;SDS_P1;SDS_P2;PMS_P1;PMS_P2;Temp;Humidity;BMP_temperature;BMP_pressure;BME280_temperature;BME280_humidity;BME280_pressure;Samples;Min_cycle;Max_cycle;Signal;HPM_P1;HPM_P2
2022/10/12 00:01:10;;;;;;;23.30;6.45;;;;;;;5.35;100.00;101959.50;5011752;28;20050;-75
2022/10/12 00:03:37;;;;;;;11.15;4.85;;;;;;;5.32;100.00;101959.38;5010543;28;20030;-77
2022/10/12 00:06:24;;;;;;;13.25;4.85;;;;;;;5.28;100.00;101964.50;5010212;28;20049;-76
2022/10/12 00:08:54;;;;;;;8.05;4.15;;;;;;;5.26;100.00;101966.13;5006446;28;20037;-75
2022/10/12 00:11:25;;;;;;;10.73;4.03;;;;;;;5.24;100.00;101973.00;5005866;28;20059;-77
2022/10/12 00:13:51;;;;;;;10.35;4.60;;;;;;;5.24;100.00;101969.50;5009024;28;20222;-75
2022/10/12 00:16:20;;;;;;;7.82;4.72;;;;;;;5.20;100.00;101971.16;5012845;28;20045;-74
2022/10/12 00:18:52;;;;;;;10.23;5.22;;;;;;;5.20;100.00;101968.53;5009600;28;20041;-75
2022/10/12 00:21:20;;;;;;;6.60;3.63;;;;;;;5.18;100.00;101970.19;5000227;28;20042;-74
2022/10/12 00:23:47;;;;;;;15.18;4.13;;;;;;;5.17;100.00;101975.34;5010554;28;20045;-74
2022/10/12 00:26:21;;;;;;;8.43;3.97;;;;;;;5.16;100.00;101976.16;5012345;28;20509;-75
2022/10/12 00:28:48;;;;;;;7.35;3.00;;;;;;;5.14;100.00;101976.97;5011896;28;20476;-77
2022/10/12 00:31:20;;;;;;;11.63;4.15;;;;;;;5.13;100.00;101977.81;5007459;28;20511;-74
2022/10/12 00:33:48;;;;;;;6.38;3.42;;;;;;;5.10;100.00;101975.13;5011053;28;20046;-76
2022/10/12 00:36:24;;;;;;;5.93;3.42;;;;;;;5.11;100.00;101971.69;5027373;28;20062;-75
2022/10/12 00:38:55;;;;;;;7.32;3.28;;;;;;;5.09;100.00;101975.06;5009162;28;20475;-76
2022/10/12 00:41:26;;;;;;;8.55;3.05;;;;;;;5.04;100.00;101972.31;5008020;28;20807;-80
2022/10/12 00:43:54;;;;;;;8.13;3.65;;;;;;;5.07;100.00;101966.34;5010532;28;20053;-74
2022/10/12 00:46:38;;;;;;;5.03;2.67;;;;;;;5.04;100.00;101963.63;5024076;28;20046;-74
2022/10/12 00:49:19;;;;;;;11.43;2.97;;;;;;;5.04;100.00;101966.25;5013764;28;20556;-75
2022/10/12 00:51:55;;;;;;;9.10;4.07;;;;;;;5.01;100.00;101966.16;5015131;28;20041;-79
2022/10/12 00:54:27;;;;;;;5.45;2.97;;;;;;;4.99;100.00;101965.19;5024217;28;20041;-76
2022/10/12 00:56:55;;;;;;;7.43;3.70;;;;;;;4.98;100.00;101961.72;4994747;28;20059;-75
2022/10/12 00:59:30;;;;;;;7.50;3.40;;;;;;;4.96;100.00;101971.16;5007104;28;20040;-75
2022/10/12 01:01:56;;;;;;;9.88;2.67;;;;;;;4.95;100.00;101978.06;5008262;28;20046;-76
2022/10/12 01:04:24;;;;;;;9.85;3.15;;;;;;;4.92;100.00;101966.69;5016362;28;20442;-74
2022/10/12 01:06:52;;;;;;;6.45;2.85;;;;;;;4.90;100.00;101969.25;5012764;28;20668;-76
2022/10/12 01:09:19;;;;;;;3.97;2.72;;;;;;;4.87;100.00;101971.69;5010728;28;20049;-75
2022/10/12 01:11:46;;;;;;;8.25;2.80;;;;;;;4.87;100.00;101973.44;5012010;28;20045;-75
2022/10/12 01:14:13;;;;;;;8.85;3.10;;;;;;;4.85;100.00;101970.78;5006912;28;20046;-77
2022/10/12 01:17:01;;;;;;;3.65;2.58;;;;;;;4.84;100.00;101966.41;5019526;28;20037;-77
2022/10/12 01:20:08;;;;;;;3.80;2.35;;;;;;;4.85;100.00;101964.69;5012933;28;20103;-75
2022/10/12 01:23:04;;;;;;;10.60;2.53;;;;;;;4.82;100.00;101968.06;5022347;28;20095;-74
2022/10/12 01:26:00;;;;;;;15.52;3.65;;;;;;;4.82;100.00;101972.38;5004167;28;20037;-77
2022/10/12 01:29:24;;;;;;;10.23;2.92;;;;;;;4.80;100.00;101960.22;5011627;28;20049;-75
2022/10/12 01:32:06;;;;;;;9.93;2.70;;;;;;;4.79;100.00;101968.84;4894507;29;20135;-76
2022/10/12 01:34:45;;;;;;;7.47;2.90;;;;;;;4.77;100.00;101957.53;5006157;28;20072;-78
2022/10/12 01:37:31;;;;;;;8.88;3.00;;;;;;;4.74;100.00;101961.72;5013010;28;20049;-76
2022/10/12 01:40:05;;;;;;;6.22;3.00;;;;;;;4.76;100.00;101957.50;5011482;28;20037;-79
2022/10/12 01:42:38;;;;;;;5.47;2.20;;;;;;;4.73;100.00;101958.25;5015811;28;20044;-75
2022/10/12 01:45:12;;;;;;;6.85;2.85;;;;;;;4.70;100.00;101960.72;5012563;28;20186;-75
2022/10/12 01:47:41;;;;;;;11.52;2.50;;;;;;;4.71;100.00;101966.81;5007778;28;20049;-75
2022/10/12 01:50:12;;;;;;;8.32;2.28;;;;;;;4.67;100.00;101960.63;5028973;28;20042;-77
2022/10/12 01:52:59;;;;;;;10.40;2.13;;;;;;;4.63;100.00;101958.75;5014511;28;20048;-77
2022/10/12 01:56:01;;;;;;;7.57;2.95;;;;;;;4.62;100.00;101962.16;5032292;28;20041;-79
2022/10/12 01:58:51;;;;;;;8.27;2.38;;;;;;;4.58;100.00;101962.88;5013909;28;20053;-75
2022/10/12 02:01:44;;;;;;;5.03;2.50;;;;;;;4.53;100.00;101954.91;5012784;28;20392;-77
2022/10/12 02:04:33;;;;;;;4.75;2.10;;;;;;;4.51;100.00;101956.59;4995550;28;20049;-74
2022/10/12 02:07:08;;;;;;;6.38;2.65;;;;;;;4.49;100.00;101953.03;5013684;28;20057;-79
2022/10/12 02:09:36;;;;;;;5.00;2.38;;;;;;;4.49;100.00;101957.38;4992207;28;20157;-75
2022/10/12 02:12:17;;;;;;;11.27;4.93;;;;;;;4.46;100.00;101951.22;5011254;28;20128;-75
2022/10/12 02:14:54;;;;;;;3.90;2.65;;;;;;;4.43;100.00;101948.53;5007530;28;20041;-80
2022/10/12 02:17:23;;;;;;;6.85;2.65;;;;;;;4.40;100.00;101944.94;5005042;28;20124;-75
2022/10/12 02:19:59;;;;;;;9.45;2.83;;;;;;;4.43;100.00;101945.03;5008981;28;20128;-76
2022/10/12 02:22:34;;;;;;;8.98;3.70;;;;;;;4.42;100.00;101938.06;5013553;28;20044;-75
2022/10/12 02:25:06;;;;;;;7.60;2.80;;;;;;;4.42;100.00;101945.84;5010417;28;20149;-75
2022/10/12 02:27:36;;;;;;;5.57;3.28;;;;;;;4.42;100.00;101943.25;5009497;28;20040;-74
2022/10/12 02:30:04;;;;;;;4.53;2.65;;;;;;;4.40;100.00;101938.03;5007714;28;20034;-76
2022/10/12 02:32:59;;;;;;;8.00;2.70;;;;;;;4.38;100.00;101933.59;5005407;28;20037;-76
2022/10/12 02:35:40;;;;;;;8.90;2.35;;;;;;;4.34;100.00;101930.03;5014951;28;20040;-76
2022/10/12 02:38:19;;;;;;;10.25;2.70;;;;;;;4.32;100.00;101933.41;5012956;28;20045;-75
2022/10/12 02:41:10;;;;;;;6.68;2.60;;;;;;;4.29;100.00;101926.41;5016463;28;20503;-78
2022/10/12 02:44:08;;;;;;;7.30;2.17;;;;;;;4.25;100.00;101927.06;5015289;28;20065;-75
2022/10/12 02:46:37;;;;;;;6.40;2.70;;;;;;;4.22;100.00;101920.06;5015027;28;20204;-74
2022/10/12 02:49:05;;;;;;;4.75;1.70;;;;;;;4.21;100.00;101920.00;5013021;28;20049;-76
2022/10/12 02:51:33;;;;;;;5.88;2.58;;;;;;;4.19;100.00;101913.91;5012644;28;20119;-76
2022/10/12 02:54:00;;;;;;;5.82;2.33;;;;;;;4.17;100.00;101915.56;5020159;28;20050;-78
2022/10/12 02:56:26;;;;;;;5.88;2.72;;;;;;;4.18;100.00;101917.31;5012838;28;20047;-77
2022/10/12 02:58:53;;;;;;;2.95;1.60;;;;;;;4.14;100.00;101908.53;5013043;28;20049;-77
2022/10/12 03:01:20;;;;;;;7.03;2.28;;;;;;;4.14;100.00;101905.94;5021650;28;20049;-77
2022/10/12 03:03:46;;;;;;;4.85;3.13;;;;;;;4.16;100.00;101906.00;5013132;28;20400;-78
2022/10/12 03:06:13;;;;;;;3.15;2.40;;;;;;;4.13;100.00;101905.06;5008068;28;20038;-76
2022/10/12 03:08:40;;;;;;;5.00;2.40;;;;;;;4.12;100.00;101905.03;5015366;28;20049;-76
2022/10/12 03:11:12;;;;;;;8.73;2.80;;;;;;;4.12;100.00;101908.50;5004645;28;20054;-77
2022/10/12 03:13:38;;;;;;;6.95;2.47;;;;;;;4.12;100.00;101917.97;5005424;28;20076;-78
2022/10/12 03:16:08;;;;;;;6.13;1.83;;;;;;;4.08;100.00;101911.78;5029596;28;20084;-77
2022/10/12 03:18:36;;;;;;;4.88;2.38;;;;;;;4.07;100.00;101911.75;5030106;28;20033;-77
2022/10/12 03:21:03;;;;;;;4.28;2.25;;;;;;;4.03;100.00;101904.66;5012747;28;20553;-75
2022/10/12 03:23:30;;;;;;;10.43;2.95;;;;;;;4.02;100.00;101903.78;5011170;28;20633;-81
2022/10/12 03:25:56;;;;;;;5.65;2.33;;;;;;;3.99;100.00;101906.25;5012004;28;20475;-77
2022/10/12 03:28:23;;;;;;;7.95;2.78;;;;;;;3.99;100.00;101903.69;4996066;28;20049;-74
2022/10/12 03:30:49;;;;;;;6.15;2.60;;;;;;;3.97;100.00;101901.00;4994986;28;20133;-74
2022/10/12 03:33:16;;;;;;;8.35;2.22;;;;;;;3.98;100.00;101894.13;5012194;28;20046;-75
2022/10/12 03:35:46;;;;;;;8.45;3.05;;;;;;;3.96;100.00;101890.59;5007402;28;20063;-77
2022/10/12 03:38:15;;;;;;;10.27;3.70;;;;;;;3.96;100.00;101893.19;5006991;28;20480;-75
2022/10/12 03:40:42;;;;;;;10.13;3.25;;;;;;;3.97;100.00;101895.81;5002003;28;20953;-74
2022/10/12 03:43:08;;;;;;;4.88;2.70;;;;;;;3.92;100.00;101886.97;5006579;28;20050;-75
2022/10/12 03:45:35;;;;;;;6.47;2.47;;;;;;;3.89;100.00;101886.00;5008331;28;20042;-75
2022/10/12 03:48:03;;;;;;;5.40;2.65;;;;;;;3.89;100.00;101888.59;4987398;28;20425;-77
2022/10/12 03:50:32;;;;;;;5.75;2.22;;;;;;;3.85;100.00;101886.72;5005708;28;20416;-75
2022/10/12 03:52:58;;;;;;;13.18;5.00;;;;;;;3.82;100.00;101884.91;5003310;28;20076;-74
2022/10/12 03:55:25;;;;;;;6.05;2.25;;;;;;;3.82;100.00;101884.91;5006290;28;20049;-78
2022/10/12 03:57:51;;;;;;;7.70;2.72;;;;;;;3.79;100.00;101883.06;5020946;28;20058;-75
2022/10/12 04:00:19;;;;;;;9.90;2.92;;;;;;;3.77;100.00;101882.13;5008932;28;20073;-79
2022/10/12 04:02:45;;;;;;;8.52;2.88;;;;;;;3.76;100.00;101875.16;5003433;28;20500;-79
2022/10/12 04:05:11;;;;;;;16.80;3.20;;;;;;;3.75;100.00;101882.88;5007974;28;20042;-77
2022/10/12 04:07:38;;;;;;;10.70;3.28;;;;;;;3.75;100.00;101873.38;5007332;28;20030;-76
2022/10/12 04:10:06;;;;;;;11.27;2.78;;;;;;;3.73;100.00;101879.34;5003431;28;20050;-76
2022/10/12 04:12:32;;;;;;;13.43;2.50;;;;;;;3.72;100.00;101881.06;5007608;28;20046;-77
2022/10/12 04:14:59;;;;;;;5.53;2.70;;;;;;;3.69;100.00;101882.63;5006384;28;20497;-75
2022/10/12 04:17:25;;;;;;;4.10;2.53;;;;;;;3.70;100.00;101885.28;5006333;28;20432;-75
2022/10/12 04:19:52;;;;;;;8.43;3.17;;;;;;;3.72;100.00;101880.19;5006864;28;20056;-77
2022/10/12 04:22:18;;;;;;;3.65;2.33;;;;;;;3.73;100.00;101879.34;4992348;28;20141;-75
2022/10/12 04:24:45;;;;;;;7.30;2.55;;;;;;;3.72;100.00;101883.63;5006902;28;20056;-77
2022/10/12 04:27:11;;;;;;;10.27;2.95;;;;;;;3.72;100.00;101878.47;5007967;28;20046;-75
2022/10/12 04:29:38;;;;;;;8.90;4.18;;;;;;;3.73;100.00;101879.34;5007581;28;20052;-78
2022/10/12 04:32:04;;;;;;;7.57;3.53;;;;;;;3.74;100.00;101874.25;4986535;28;20130;-81
2022/10/12 04:34:31;;;;;;;5.10;2.45;;;;;;;3.72;100.00;101869.81;5011222;28;20052;-76
2022/10/12 04:36:57;;;;;;;9.98;2.78;;;;;;;3.75;100.00;101872.50;4994194;28;20057;-76
2022/10/12 04:39:23;;;;;;;22.33;8.80;;;;;;;3.73;100.00;101876.75;5010429;28;20046;-81
2022/10/12 04:41:50;;;;;;;7.25;2.88;;;;;;;3.72;100.00;101875.88;5008456;28;20040;-75
2022/10/12 04:44:16;;;;;;;6.93;3.17;;;;;;;3.74;100.00;101873.34;5007027;28;20461;-77
2022/10/12 04:46:43;;;;;;;5.38;2.90;;;;;;;3.72;100.00;101870.69;5003093;28;20053;-76
2022/10/12 04:49:09;;;;;;;7.93;3.20;;;;;;;3.72;100.00;101872.41;5008792;28;20044;-75
2022/10/12 04:51:36;;;;;;;7.70;3.08;;;;;;;3.69;100.00;101870.59;5011034;28;20497;-75
2022/10/12 04:54:02;;;;;;;7.10;3.17;;;;;;;3.69;100.00;101880.03;5010897;28;20060;-75
2022/10/12 04:56:29;;;;;;;8.35;4.45;;;;;;;3.67;100.00;101874.81;5008665;28;20034;-75
2022/10/12 04:58:55;;;;;;;7.80;3.28;;;;;;;3.68;100.00;101878.25;5002617;28;20697;-76
2022/10/12 05:01:22;;;;;;;8.35;2.97;;;;;;;3.66;100.00;101870.44;5005137;28;20038;-77
2022/10/12 05:03:48;;;;;;;5.78;2.97;;;;;;;3.65;100.00;101871.28;4993931;28;20046;-75
2022/10/12 05:06:15;;;;;;;10.32;3.20;;;;;;;3.67;100.00;101879.13;5010165;28;20421;-77
2022/10/12 05:08:42;;;;;;;8.85;4.65;;;;;;;3.68;100.00;101867.91;5005061;28;20749;-81
2022/10/12 05:11:08;;;;;;;11.60;4.85;;;;;;;3.67;100.00;101871.34;5006495;28;20409;-75
2022/10/12 05:13:34;;;;;;;5.28;3.17;;;;;;;3.66;100.00;101873.03;5007925;28;20042;-79
2022/10/12 05:16:01;;;;;;;11.13;2.47;;;;;;;3.66;100.00;101870.44;5009298;28;20048;-75
2022/10/12 05:18:28;;;;;;;9.25;3.28;;;;;;;3.68;100.00;101870.50;5001115;28;20129;-76
2022/10/12 05:20:54;;;;;;;7.28;3.58;;;;;;;3.70;100.00;101872.31;4993868;28;20052;-75
2022/10/12 05:23:21;;;;;;;13.93;3.67;;;;;;;3.69;100.00;101874.84;5009146;28;20048;-79
2022/10/12 05:25:47;;;;;;;9.90;3.35;;;;;;;3.68;100.00;101874.00;5002359;28;20038;-78
2022/10/12 05:28:14;;;;;;;3.55;2.35;;;;;;;3.66;100.00;101865.25;5006807;28;20042;-75
2022/10/12 05:30:40;;;;;;;10.07;3.35;;;;;;;3.66;100.00;101874.75;5004900;28;20121;-76
2022/10/12 05:33:07;;;;;;;15.60;3.78;;;;;;;3.67;100.00;101873.94;4998610;28;20038;-77
2022/10/12 05:35:33;;;;;;;9.10;3.53;;;;;;;3.67;100.00;101871.34;5005794;28;20072;-78
2022/10/12 05:38:00;;;;;;;6.60;4.20;;;;;;;3.68;100.00;101867.91;4989823;28;20046;-75
2022/10/12 05:40:26;;;;;;;6.10;2.70;;;;;;;3.66;100.00;101862.69;5014274;28;20036;-77
2022/10/12 05:42:53;;;;;;;9.18;4.18;;;;;;;3.68;100.00;101865.31;5022687;28;20053;-76
2022/10/12 05:45:19;;;;;;;5.75;3.47;;;;;;;3.67;100.00;101869.63;5014189;28;20072;-76
2022/10/12 05:47:46;;;;;;;8.73;3.22;;;;;;;3.73;100.00;101866.38;5008425;28;20049;-75
2022/10/12 05:50:12;;;;;;;6.70;3.45;;;;;;;3.69;100.00;101861.91;5008695;28;20057;-73
2022/10/12 05:52:39;;;;;;;12.82;3.85;;;;;;;3.68;100.00;101858.44;5007580;28;20049;-76
2022/10/12 05:55:06;;;;;;;6.95;3.58;;;;;;;3.69;100.00;101857.63;5014486;28;20073;-76
2022/10/12 05:57:33;;;;;;;8.15;3.88;;;;;;;3.69;100.00;101857.63;5003417;28;20058;-75
2022/10/12 05:59:59;;;;;;;13.30;4.03;;;;;;;3.72;100.00;101857.75;5013287;28;20112;-77
2022/10/12 06:02:26;;;;;;;8.50;3.55;;;;;;;3.73;100.00;101861.19;4989077;28;20124;-80
2022/10/12 06:04:52;;;;;;;10.18;4.15;;;;;;;3.75;100.00;101867.34;5010749;28;20053;-78
2022/10/12 06:07:19;;;;;;;9.60;3.63;;;;;;;3.75;100.00;101859.56;5007472;28;20050;-74
2022/10/12 06:09:46;;;;;;;6.22;3.22;;;;;;;3.77;100.00;101860.53;5010423;28;20790;-78
2022/10/12 06:12:13;;;;;;;8.50;3.38;;;;;;;3.76;100.00;101856.16;5009976;28;20691;-76
2022/10/12 06:14:39;;;;;;;3.72;2.90;;;;;;;3.78;100.00;101860.56;5003918;28;20042;-74
2022/10/12 06:17:06;;;;;;;7.78;3.75;;;;;;;3.76;100.00;101858.75;5003297;28;20132;-75
2022/10/12 06:19:33;;;;;;;9.45;4.10;;;;;;;3.78;100.00;101862.25;5011402;28;20464;-75
2022/10/12 06:21:59;;;;;;;7.68;4.13;;;;;;;3.79;100.00;101859.75;5017655;28;20050;-81
2022/10/12 06:24:26;;;;;;;8.80;3.20;;;;;;;3.84;100.00;101853.88;5003028;28;20105;-80
2022/10/12 06:26:52;;;;;;;8.82;3.30;;;;;;;3.86;100.00;101860.88;4983547;28;20054;-76
2022/10/12 06:29:22;;;;;;;8.18;3.72;;;;;;;3.87;100.00;101862.66;5007022;28;20049;-74
2022/10/12 06:31:49;;;;;;;5.75;2.90;;;;;;;3.89;100.00;101857.50;5007515;28;20096;-75
2022/10/12 06:34:16;;;;;;;9.00;3.72;;;;;;;3.92;100.00;101855.03;5008517;28;20046;-76
2022/10/12 06:36:42;;;;;;;11.63;3.97;;;;;;;3.99;100.00;101851.84;5010869;28;20053;-77
2022/10/12 06:39:10;;;;;;;13.88;4.38;;;;;;;4.04;100.00;101857.19;5008802;28;20041;-76
2022/10/12 06:41:36;;;;;;;8.52;3.30;;;;;;;4.08;100.00;101861.66;5005307;28;20048;-74
2022/10/12 06:44:04;;;;;;;7.45;3.42;;;;;;;4.13;100.00;101863.63;5009094;28;20053;-74
2022/10/12 06:46:30;;;;;;;8.65;3.78;;;;;;;4.22;100.00;101869.94;5003036;28;20052;-76
2022/10/12 06:48:57;;;;;;;12.23;3.58;;;;;;;4.40;100.00;101864.56;4994269;28;20113;-76
2022/10/12 06:51:23;;;;;;;10.88;4.28;;;;;;;5.07;100.00;101862.50;5011943;28;20502;-81
2022/10/12 06:53:50;;;;;;;10.68;3.72;;;;;;;5.89;100.00;101859.88;4986776;28;20134;-74
2022/10/12 06:56:17;;;;;;;6.25;3.33;;;;;;;6.61;100.00;101853.28;4999812;28;20089;-78
2022/10/12 06:58:43;;;;;;;6.07;3.58;;;;;;;7.22;100.00;101853.97;5004821;28;20096;-74
2022/10/12 07:01:10;;;;;;;7.80;3.15;;;;;;;7.65;100.00;101858.41;4992509;28;20713;-75
2022/10/12 07:03:36;;;;;;;5.32;3.88;;;;;;;8.07;100.00;101855.84;5007712;28;20545;-76
2022/10/12 07:06:12;;;;;;;8.57;3.35;;;;;;;8.26;97.54;101857.09;5007148;28;20047;-75
2022/10/12 07:08:40;;;;;;;8.02;3.50;;;;;;;8.51;94.48;101860.19;5027041;28;20038;-75
2022/10/12 07:11:10;;;;;;;6.55;3.17;;;;;;;8.95;92.64;101851.41;5012508;28;20052;-75
2022/10/12 07:13:37;;;;;;;4.93;2.70;;;;;;;9.17;88.08;101860.50;5011361;28;20045;-76
2022/10/12 07:16:04;;;;;;;7.25;3.00;;;;;;;9.64;87.13;101846.38;5012529;28;20038;-75
2022/10/12 07:18:30;;;;;;;5.45;3.03;;;;;;;10.01;84.95;101848.63;5021861;28;20121;-76
2022/10/12 07:20:58;;;;;;;7.55;3.47;;;;;;;9.88;84.20;101848.47;4994967;28;20260;-75
2022/10/12 07:23:26;;;;;;;6.70;3.28;;;;;;;9.81;81.89;101850.97;5011859;28;20531;-76
2022/10/12 07:25:53;;;;;;;9.05;2.85;;;;;;;9.54;83.35;101845.41;4998629;28;20457;-76
2022/10/12 07:28:20;;;;;;;3.70;2.42;;;;;;;9.22;85.79;101847.53;5025121;28;20046;-75
2022/10/12 07:30:47;;;;;;;11.68;3.22;;;;;;;9.02;85.10;101853.31;4990331;28;20049;-78
2022/10/12 07:33:14;;;;;;;17.50;2.97;;;;;;;8.57;87.57;101851.63;5026078;28;20129;-76
2022/10/12 07:35:40;;;;;;;8.52;3.25;;;;;;;8.21;88.92;101861.34;4996776;28;20500;-78
2022/10/12 07:38:07;;;;;;;10.13;4.25;;;;;;;7.83;91.21;101860.53;5030882;28;20108;-76
2022/10/12 07:40:34;;;;;;;7.72;3.25;;;;;;;7.58;93.82;101855.66;5030323;28;20120;-77
2022/10/12 07:43:00;;;;;;;4.93;3.22;;;;;;;7.43;95.21;101860.50;5014512;28;20476;-76
2022/10/12 07:45:27;;;;;;;12.45;3.67;;;;;;;7.33;96.23;101863.75;5016743;28;20045;-74
2022/10/12 07:47:55;;;;;;;12.40;3.28;;;;;;;7.27;97.25;101864.47;5013366;28;20037;-76
2022/10/12 07:50:24;;;;;;;5.72;3.35;;;;;;;7.22;97.50;101864.38;5016591;28;20120;-76
2022/10/12 07:52:50;;;;;;;11.27;3.53;;;;;;;7.18;98.08;101859.03;5001641;28;20052;-77
2022/10/12 07:55:17;;;;;;;7.65;3.05;;;;;;;7.18;99.35;101861.66;5032552;28;20061;-76
2022/10/12 07:57:44;;;;;;;7.32;3.35;;;;;;;7.18;100.00;101861.66;5029139;28;20061;-75
2022/10/12 08:00:11;;;;;;;7.43;4.32;;;;;;;7.18;100.00;101854.69;5019029;28;20041;-76
2022/10/12 08:02:37;;;;;;;6.15;2.42;;;;;;;7.20;100.00;101862.56;5033125;28;20045;-77
2022/10/12 08:05:04;;;;;;;10.10;3.10;;;;;;;7.21;100.00;101856.50;5002602;28;20053;-80
2022/10/12 08:07:31;;;;;;;6.13;3.72;;;;;;;7.25;100.00;101855.75;5017981;28;20468;-75
2022/10/12 08:09:57;;;;;;;8.82;3.42;;;;;;;7.30;100.00;101859.34;5018215;28;20037;-75
2022/10/12 08:12:24;;;;;;;8.02;2.63;;;;;;;7.35;100.00;101860.31;5016026;28;20495;-76
2022/10/12 08:14:50;;;;;;;7.70;3.45;;;;;;;7.44;100.00;101857.06;5011523;28;20124;-75
2022/10/12 08:17:17;;;;;;;10.18;3.67;;;;;;;7.51;99.79;101863.28;5016008;28;20511;-76
2022/10/12 08:19:43;;;;;;;6.90;3.10;;;;;;;7.56;99.37;101859.97;5016872;28;20045;-76
2022/10/12 08:22:11;;;;;;;8.25;3.92;;;;;;;7.65;99.76;101863.63;5031929;28;20129;-77
2022/10/12 08:24:37;;;;;;;6.95;2.35;;;;;;;7.71;98.95;101867.22;5017137;28;20049;-75
2022/10/12 08:27:04;;;;;;;7.65;2.40;;;;;;;7.77;99.33;101864.78;5002309;28;20076;-76
2022/10/12 08:29:30;;;;;;;9.85;2.55;;;;;;;7.86;98.37;101874.53;5009011;28;20481;-80
2022/10/12 08:31:57;;;;;;;4.97;2.40;;;;;;;7.94;97.72;101867.75;5006763;28;20046;-75
2022/10/12 08:34:24;;;;;;;4.78;1.90;;;;;;;7.98;96.27;101873.91;5016488;28;20357;-75
2022/10/12 08:36:51;;;;;;;8.65;2.22;;;;;;;8.07;95.30;101874.09;5006780;28;20062;-75
2022/10/12 08:39:18;;;;;;;7.13;2.00;;;;;;;8.16;94.90;101872.53;4993407;28;20065;-77
2022/10/12 08:42:08;;;;;;;8.10;2.80;;;;;;;8.24;94.90;101870.97;5003768;28;20657;-77
2022/10/12 08:44:41;;;;;;;7.43;3.17;;;;;;;8.34;94.30;101870.28;5019566;28;20666;-77
2022/10/12 08:47:40;;;;;;;6.90;2.15;;;;;;;8.42;93.23;101870.44;5015015;28;20489;-75
2022/10/12 08:50:17;;;;;;;5.55;2.33;;;;;;;8.50;92.34;101871.50;5009827;28;20042;-74
2022/10/12 08:52:55;;;;;;;4.47;1.70;;;;;;;8.55;91.87;101872.47;5008101;28;20046;-79
2022/10/12 08:55:36;;;;;;;5.55;2.38;;;;;;;8.62;91.96;101873.47;5008303;28;20046;-79
2022/10/12 08:58:03;;;;;;;3.80;1.92;;;;;;;8.66;91.11;101871.81;5011759;28;20044;-75
2022/10/12 09:00:33;;;;;;;4.18;1.92;;;;;;;8.69;90.71;101874.47;5007815;28;20045;-75
2022/10/12 09:03:13;;;;;;;5.03;2.10;;;;;;;8.71;90.98;101865.81;5012809;28;20057;-74
2022/10/12 09:05:57;;;;;;;10.90;2.42;;;;;;;8.77;90.70;101868.53;5009971;28;20133;-74
2022/10/12 09:08:52;;;;;;;7.30;2.42;;;;;;;8.86;90.72;101865.19;5013457;28;20049;-75
2022/10/12 09:11:56;;;;;;;5.25;3.05;;;;;;;8.97;89.48;101856.66;5011530;28;20388;-75
2022/10/12 09:14:31;;;;;;;5.75;3.03;;;;;;;9.06;88.28;101859.44;5003034;28;20057;-77
2022/10/12 09:17:00;;;;;;;10.85;2.92;;;;;;;9.16;87.33;101853.50;5009734;28;20058;-75
2022/10/12 09:19:38;;;;;;;4.47;2.67;;;;;;;9.28;86.69;101855.44;5005375;28;20371;-75
2022/10/12 09:22:17;;;;;;;9.30;2.80;;;;;;;9.36;86.78;101866.91;5005902;28;20053;-79
2022/10/12 09:24:47;;;;;;;4.13;1.40;;;;;;;9.45;86.11;101855.69;5010656;28;20057;-75
2022/10/12 09:27:17;;;;;;;6.03;2.03;;;;;;;9.51;85.80;101853.19;5004496;28;20132;-75
2022/10/12 09:29:51;;;;;;;9.75;2.83;;;;;;;9.61;85.35;101846.34;5010701;28;20052;-76
2022/10/12 09:32:30;;;;;;;8.77;2.90;;;;;;;9.72;84.50;101847.38;4993552;28;20053;-78
2022/10/12 09:34:57;;;;;;;12.93;2.92;;;;;;;9.84;83.57;101846.69;4989698;28;20068;-75
2022/10/12 09:37:28;;;;;;;6.80;2.97;;;;;;;9.91;83.65;101851.13;5003140;28;20054;-74
2022/10/12 09:39:55;;;;;;;6.70;2.35;;;;;;;10.01;83.10;101846.00;5005686;28;20041;-80
2022/10/12 09:42:22;;;;;;;8.15;2.72;;;;;;;10.09;82.79;101844.38;5010234;28;20042;-82
2022/10/12 09:44:53;;;;;;;9.45;2.45;;;;;;;10.23;81.46;101849.75;5008779;28;20042;-75
2022/10/12 09:47:23;;;;;;;5.93;2.35;;;;;;;10.37;80.09;101836.88;5008863;28;20049;-78
2022/10/12 09:49:52;;;;;;;6.18;3.05;;;;;;;10.55;78.42;101838.81;5002182;28;20042;-75
2022/10/12 09:52:26;;;;;;;13.05;2.75;;;;;;;10.70;77.44;101836.34;5008793;28;20038;-75
2022/10/12 09:55:00;;;;;;;13.65;2.28;;;;;;;10.75;77.28;101826.78;5008266;28;20144;-79
2022/10/12 09:57:40;;;;;;;6.93;2.38;;;;;;;10.93;75.46;101830.44;5009851;28;20431;-76
2022/10/12 10:00:24;;;;;;;10.13;2.47;;;;;;;11.02;75.68;101832.25;5008970;28;20034;-77
2022/10/12 10:02:51;;;;;;;;;;;;;;;11.12;74.92;101834.09;5008663;28;20125;-77
2022/10/12 10:05:35;;;;;;;4.68;1.80;;;;;;;11.20;75.72;101835.00;5011989;28;19960;-78
2022/10/12 10:08:13;;;;;;;2.57;1.97;;;;;;;11.32;73.61;101835.97;5009343;28;20486;-75
2022/10/12 10:10:55;;;;;;;4.15;2.47;;;;;;;11.37;73.70;101824.63;5006208;28;20289;-79
2022/10/12 10:13:26;;;;;;;5.43;2.40;;;;;;;11.49;74.00;101823.84;4991267;28;20045;-75
2022/10/12 10:16:06;;;;;;;9.10;2.70;;;;;;;11.59;72.67;101824.78;5008943;28;20125;-75
2022/10/12 10:18:47;;;;;;;7.97;2.67;;;;;;;11.62;71.46;101816.06;5009190;28;20128;-73
2022/10/12 10:21:28;;;;;;;8.98;2.30;;;;;;;11.72;70.57;101829.22;5007567;28;20034;-78
2022/10/12 10:24:05;;;;;;;6.75;2.05;;;;;;;11.75;69.85;101826.59;5001933;28;20488;-81
2022/10/12 10:27:00;;;;;;;5.63;2.55;;;;;;;11.82;69.54;101829.25;5003275;28;20539;-77
2022/10/12 10:29:37;;;;;;;5.60;2.28;;;;;;;11.84;69.83;101823.16;4999138;28;20049;-76
2022/10/12 10:32:25;;;;;;;6.43;2.55;;;;;;;11.89;70.07;101815.31;5012948;28;20129;-79
2022/10/12 10:35:14;;;;;;;8.43;2.42;;;;;;;11.95;70.13;101822.31;5012451;28;20386;-76
2022/10/12 10:37:51;;;;;;;6.30;2.30;;;;;;;12.01;69.89;101817.13;5007149;28;20061;-75
2022/10/12 10:40:26;;;;;;;9.07;2.42;;;;;;;12.11;69.80;101818.03;4996802;28;20053;-78
2022/10/12 10:42:57;;;;;;;10.07;2.67;;;;;;;12.22;68.72;101817.19;4994774;28;20104;-79
2022/10/12 10:45:32;;;;;;;7.43;2.58;;;;;;;12.32;68.06;101807.59;5005639;28;20054;-76
2022/10/12 10:48:09;;;;;;;3.85;1.92;;;;;;;12.41;66.48;101804.09;5003166;28;20066;-76
2022/10/12 10:50:41;;;;;;;5.30;1.50;;;;;;;12.44;66.80;101797.97;5008194;28;20034;-76
2022/10/12 10:53:21;;;;;;;13.65;2.13;;;;;;;12.51;66.91;101798.00;5008424;28;20034;-77
2022/10/12 10:56:15;;;;;;;5.57;2.15;;;;;;;12.60;66.26;101793.66;5012644;28;20446;-76
2022/10/12 10:58:47;;;;;;;6.00;2.08;;;;;;;12.74;66.18;101792.75;4994585;28;20132;-77
2022/10/12 11:01:29;;;;;;;6.03;2.33;;;;;;;12.85;65.08;101794.53;5005062;28;20076;-78
2022/10/12 11:04:14;;;;;;;4.15;1.80;;;;;;;13.06;64.88;101789.25;5004984;28;20053;-77
2022/10/12 11:06:50;;;;;;;7.22;2.50;;;;;;;13.43;63.52;101785.72;5006442;28;20058;-75
2022/10/12 11:09:29;;;;;;;9.05;1.42;;;;;;;14.22;60.78;101786.25;5014523;28;20053;-76
2022/10/12 11:12:05;;;;;;;7.40;1.60;;;;;;;15.09;58.22;101782.97;5006641;28;20049;-76
2022/10/12 11:14:44;;;;;;;4.05;1.75;;;;;;;16.41;55.76;101771.69;5007792;28;20045;-76
2022/10/12 11:17:18;;;;;;;7.55;2.70;;;;;;;16.96;54.00;101766.41;5006481;28;20054;-77
2022/10/12 11:19:59;;;;;;;7.50;1.42;;;;;;;16.97;51.33;101768.16;5005822;28;20042;-75
2022/10/12 11:22:53;;;;;;;5.32;1.50;;;;;;;17.07;50.17;101767.09;5003852;28;20042;-78
2022/10/12 11:25:30;;;;;;;;;;;;;;;16.87;50.95;101770.94;5004362;28;20076;-79
2022/10/12 11:27:57;;;;;;;6.40;1.98;;;;;;;18.12;50.07;101765.00;5003178;28;19936;-79
2022/10/12 11:30:28;;;;;;;7.68;1.85;;;;;;;19.38;46.96;101756.56;5006696;28;20511;-77
2022/10/12 11:33:00;;;;;;;4.85;1.98;;;;;;;20.87;44.52;101753.75;5009011;28;20042;-76
2022/10/12 11:35:32;;;;;;;7.45;2.85;;;;;;;22.41;41.49;101741.75;5008392;28;20048;-76
2022/10/12 11:38:06;;;;;;;4.45;1.92;;;;;;;23.44;39.01;101738.22;5012120;28;20049;-79
2022/10/12 11:40:45;;;;;;;4.03;1.58;;;;;;;24.38;36.37;101733.78;4978865;28;20044;-78
2022/10/12 11:43:21;;;;;;;8.25;2.63;;;;;;;24.28;35.21;101729.81;5006271;28;20107;-80
2022/10/12 11:45:53;;;;;;;4.45;1.70;;;;;;;24.32;36.62;101723.38;4980646;28;20518;-77
2022/10/12 11:48:31;;;;;;;8.45;2.47;;;;;;;24.31;34.31;101720.78;4984524;28;20074;-78